Wednesday, December 19, 2018, 4:36 PM GMT
Back to Local

CWNQ, Nicolet Automatic Weather Reporting System

Location: , , Canada Lat: 46.217
Local Time: 4:36 PM GMT (16:36 GMT) Lon: -72.65
Time Zone: GMT Elev: 32 ft

Show me the last for .
Show Coded

Time T Td Feel RH Dir Speed Gust Alt SLP Vis Weather Sky Remarks
2018-12-19 16:00 17 8 10 68 240° 5 - - 30.04 0 None
2018-12-19 15:00 15 7 7 68 180° 6 - - 30.06 0 None
2018-12-19 14:00 13 6 5 72 190° 5 - - 30.07 0 None
2018-12-19 13:00 10 5 2 79 180° 5 - - 30.06 0 None
2018-12-19 12:00 8 3 0 79 150° 5 - - 30.05 0 None
2018-12-19 11:00 11 6 3 79 170° 5 - - 30.06 0 None
2018-12-19 10:00 11 6 3 78 170° 5 - - 30.06 0 None
2018-12-19 09:00 15 7 4 69 200° 8 - - 30.06 0 None
2018-12-19 08:00 14 7 6 72 200° 5 - - 30.06 0 None
2018-12-19 07:00 16 9 5 73 230° 8 - - 30.06 0 None
2018-12-19 06:00 15 8 7 71 220° 6 - - 30.04 0 None
2018-12-19 05:00 18 8 8 63 280° 8 - - 30.04 0 None
2018-12-19 04:00 18 7 8 62 280° 8 - - 30.05 0 None
2018-12-19 03:00 18 8 10 62 280° 6 - - 30.06 0 None
2018-12-19 02:00 20 8 11 59 270° 7 - - 30.06 0 None
2018-12-19 01:00 19 8 11 61 300° 6 - - 30.06 0 None
2018-12-19 00:00 20 8 10 61 310° 8 - - 30.06 0 None
2018-12-18 23:00 20 8 12 58 310° 7 - - 30.05 0 None
2018-12-18 22:00 22 9 13 57 300° 8 - - 30.04 0 None
2018-12-18 21:00 23 10 13 58 310° 9 - - 30.03 0 Peak wind: 19 mph (17 kts) from 320° at 27 min
2018-12-18 20:00 23 11 13 58 300° 10 - - 30.00 0 Peak wind: 20 mph (18 kts) from 280° at 10 min
2018-12-18 19:00 24 10 10 56 300° 10 17 - 29.98 0 Peak wind: 20 mph (18 kts) from 300° at 48 min
2018-12-18 18:00 23 10 8 57 280° 14 21 - 29.95 0 Peak wind: 20 mph (18 kts) from 290° at 00 min
2018-12-18 17:00 22 10 8 59 310° 12 20 - 29.95 0 Peak wind: 23 mph (20 kts) from 300° at 44 min

Support USWX by starting your Amazon purchase here.